METAR Data
IDs: Format: Raw Decoded Include TAF

Data at: 0615 UTC 22 Jan 2021

METAR for:KHCR (Heber City Muni, UT, US)
Text:KHCR 220555Z AUTO 00000KT 10SM CLR M03/M06 A2997 RMK AO2
Temperature: -3.0°C ( 27°F)
Dewpoint: -6.0°C ( 21°F) [RH = 80%]
Pressure (altimeter):29.97 inches Hg (1015.0 mb)
Winds:calm
Visibility:10 or more sm (16+ km)
Ceiling:at least 12,000 feet AGL
Clouds:sky clear below 12,000 feet AGL
QC Flag:automated observation with no human augmentation